Decoded Metar for EPWR (WROCLAW in POLAND) (IATA:WRO) | Meteo·Mobile Aviation Weather
aviador You're here:

EPWR Decoded Metar

WROCLAW in POLAND
Report Time2019-02-16 07:30:00
UTC Time2019-02-16 07:59:40
Flight Rules vfr VFR
Wind120° at 02 kt
W.Decomp.*RWY 11: 2.0 kt HW 0.2 kt RCW
W.Rank120° ranks 8
Current wind is below 120° avg. (5.8)
Visibility9999 m
Phenomena:N/A
Clouds:N/A
Expected CloudBase > 800 ft AGL from Temp-Dew spread
CeilingNone
Temp00°C (ISA -14)
Dew Point-2°C (87% RH)
AAT-3.0°C
QNH1029 hPa
Density Alt-1,808 ft
Elevation397 ft
Report Wrong Elevation
Raw Report
EPWR 160730Z 12002KT CAVOK M00/M02 Q1029=

Extra information for EPWR:More info

Metar Taf Metar & Taf Last 4 Metars F.Rules Stats Wind Profile Meteogram Temp Stats Airport Information Weather charts Add Link Nearby VenuesMetar ALERT Operation Metar Decoded Social comments